createdAt,value
2022-10-14T00:01:30.812Z,5.85
2022-10-14T00:04:01.916Z,6.30
2022-10-14T00:06:37.516Z,5.45
2022-10-14T00:09:10.586Z,4.13
2022-10-14T00:11:41.516Z,4.15
2022-10-14T00:14:15.652Z,4.70
2022-10-14T00:16:48.650Z,3.30
2022-10-14T00:19:20.045Z,3.47
2022-10-14T00:21:54.270Z,5.63
2022-10-14T00:24:25.262Z,3.88
2022-10-14T00:26:55.972Z,4.90
2022-10-14T00:29:26.733Z,5.63
2022-10-14T00:31:57.728Z,4.70
2022-10-14T00:34:30.593Z,9.05
2022-10-14T00:37:06.973Z,5.82
2022-10-14T00:39:37.977Z,5.85
2022-10-14T00:42:08.827Z,4.65
2022-10-14T00:45:18.721Z,4.63
2022-10-14T00:47:53.604Z,5.20
2022-10-14T00:50:25.032Z,5.22
2022-10-14T00:52:59.392Z,8.73
2022-10-14T00:55:31.300Z,6.60
2022-10-14T00:58:04.429Z,4.68
2022-10-14T01:00:35.234Z,5.07
2022-10-14T01:03:11.282Z,4.93
2022-10-14T01:05:51.351Z,5.90
2022-10-14T01:08:31.395Z,5.97
2022-10-14T01:11:10.250Z,6.32
2022-10-14T01:13:45.871Z,11.18
2022-10-14T01:16:24.204Z,6.28
2022-10-14T01:19:15.689Z,6.72
2022-10-14T01:21:51.044Z,6.93
2022-10-14T01:24:52.463Z,7.28
2022-10-14T01:27:46.163Z,5.78
2022-10-14T01:30:22.630Z,5.40
2022-10-14T01:33:07.979Z,5.03
2022-10-14T01:35:59.388Z,6.43
2022-10-14T01:38:34.710Z,5.05
2022-10-14T01:41:11.685Z,4.45
2022-10-14T01:43:46.516Z,5.90
2022-10-14T01:46:25.664Z,6.20
2022-10-14T01:48:59.292Z,6.55
2022-10-14T01:51:33.909Z,7.90
2022-10-14T01:54:09.750Z,7.60
2022-10-14T01:56:41.532Z,4.55
2022-10-14T01:59:14.997Z,5.68
2022-10-14T02:01:48.319Z,6.97
2022-10-14T02:04:21.997Z,5.78
2022-10-14T02:07:01.683Z,6.63
2022-10-14T02:09:41.247Z,5.30
2022-10-14T02:12:24.140Z,6.88
2022-10-14T02:15:04.169Z,5.55
2022-10-14T02:17:41.322Z,7.00
2022-10-14T02:20:28.376Z,6.18
2022-10-14T02:23:23.955Z,6.65
2022-10-14T02:25:57.318Z,6.55
2022-10-14T02:28:33.026Z,7.18
2022-10-14T02:31:08.649Z,6.30
2022-10-14T02:33:45.632Z,8.52
2022-10-14T02:36:19.951Z,6.18
2022-10-14T02:38:51.603Z,8.98
2022-10-14T02:41:25.931Z,6.28
2022-10-14T02:43:56.891Z,6.35
2022-10-14T02:46:29.258Z,7.90
2022-10-14T02:49:02.863Z,7.20
2022-10-14T02:51:33.566Z,5.95
2022-10-14T02:54:04.828Z,7.50
2022-10-14T02:56:36.101Z,5.78
2022-10-14T02:59:06.844Z,6.90
2022-10-14T03:01:38.111Z,6.22
2022-10-14T03:04:14.676Z,6.20
2022-10-14T03:06:46.895Z,6.65
2022-10-14T03:09:18.656Z,5.88
2022-10-14T03:11:52.313Z,9.70
2022-10-14T03:14:24.921Z,7.30
2022-10-14T03:16:56.384Z,7.97
2022-10-14T03:19:31.573Z,8.65
2022-10-14T03:22:02.272Z,7.85
2022-10-14T03:24:33.877Z,6.57
2022-10-14T03:27:37.318Z,7.53
2022-10-14T03:30:14.224Z,9.27
2022-10-14T03:32:59.586Z,8.07
2022-10-14T03:36:11.434Z,7.80
2022-10-14T03:38:50.043Z,8.02
2022-10-14T03:41:30.031Z,7.75
2022-10-14T03:44:00.990Z,7.35
2022-10-14T03:46:31.912Z,7.28
2022-10-14T03:49:03.266Z,7.40
2022-10-14T03:51:37.004Z,6.53
2022-10-14T03:54:23.363Z,7.60
2022-10-14T03:56:54.340Z,6.20
2022-10-14T03:59:30.614Z,9.05
2022-10-14T04:02:01.697Z,6.65
2022-10-14T04:04:34.783Z,7.18
2022-10-14T04:07:08.141Z,5.75
2022-10-14T04:09:40.312Z,4.90
2022-10-14T04:12:13.081Z,7.20
2022-10-14T04:15:00.415Z,4.95
2022-10-14T04:17:37.537Z,7.10
2022-10-14T04:20:14.902Z,6.95
2022-10-14T04:22:48.599Z,5.88
2022-10-14T04:25:23.107Z,7.63
2022-10-14T04:27:58.394Z,6.00
2022-10-14T04:30:39.194Z,5.95
2022-10-14T04:33:12.711Z,5.95
2022-10-14T04:35:44.541Z,8.18
2022-10-14T04:38:26.534Z,7.85
2022-10-14T04:41:02.893Z,7.88
2022-10-14T04:43:34.901Z,5.68
2022-10-14T04:46:20.147Z,7.20
2022-10-14T04:48:51.213Z,7.50
2022-10-14T04:51:23.941Z,6.07
2022-10-14T04:54:31.081Z,6.82
2022-10-14T04:57:04.302Z,7.53
2022-10-14T04:59:35.329Z,5.60
2022-10-14T05:02:20.469Z,8.15
2022-10-14T05:04:55.813Z,7.10
2022-10-14T05:07:26.577Z,5.65
2022-10-14T05:10:08.212Z,7.20
2022-10-14T05:12:44.662Z,6.40
2022-10-14T05:15:16.270Z,6.47
2022-10-14T05:17:57.698Z,6.88
2022-10-14T05:20:39.907Z,5.35
2022-10-14T05:23:10.652Z,5.55
2022-10-14T05:25:45.270Z,5.10
2022-10-14T05:28:16.095Z,5.25
2022-10-14T05:30:48.634Z,5.68
2022-10-14T05:33:21.047Z,7.40
2022-10-14T05:36:00.062Z,7.82
2022-10-14T05:38:36.061Z,7.40
2022-10-14T05:41:10.391Z,7.13
2022-10-14T05:43:42.208Z,7.85
2022-10-14T05:46:15.893Z,7.15
2022-10-14T05:48:51.543Z,10.88
2022-10-14T05:51:23.532Z,6.15
2022-10-14T05:54:00.180Z,5.85
2022-10-14T05:56:36.548Z,7.47
2022-10-14T05:59:07.935Z,7.35
2022-10-14T06:01:39.631Z,6.70
2022-10-14T06:04:10.717Z,6.78
2022-10-14T06:06:43.494Z,7.13
2022-10-14T06:09:14.915Z,5.90
2022-10-14T06:11:49.236Z,7.25
2022-10-14T06:14:20.219Z,2.45
2022-10-14T06:16:53.344Z,5.13
2022-10-14T06:19:24.758Z,7.68
2022-10-14T06:21:55.955Z,7.05
2022-10-14T06:24:26.675Z,6.00
2022-10-14T06:27:01.207Z,5.18
2022-10-14T06:29:38.054Z,5.85
2022-10-14T06:32:09.516Z,3.50
2022-10-14T06:34:40.275Z,5.95
2022-10-14T06:37:11.431Z,3.83
2022-10-14T06:39:43.866Z,4.18
2022-10-14T06:42:17.218Z,3.60
2022-10-14T06:44:49.119Z,4.65
2022-10-14T06:47:19.770Z,5.95
2022-10-14T06:49:53.451Z,4.10
2022-10-14T06:52:24.258Z,4.22
2022-10-14T06:54:55.394Z,4.95
2022-10-14T06:57:28.903Z,4.13
2022-10-14T06:59:59.651Z,15.02
2022-10-14T07:02:30.524Z,23.48
2022-10-14T07:05:01.451Z,30.08
2022-10-14T07:07:32.236Z,5.90
2022-10-14T07:10:03.517Z,5.63
2022-10-14T07:12:36.953Z,4.95
2022-10-14T07:15:08.412Z,5.07
2022-10-14T07:17:39.531Z,4.63
2022-10-14T07:20:12.520Z,4.05
2022-10-14T07:22:43.664Z,3.92
2022-10-14T07:25:15.047Z,4.05
2022-10-14T07:27:49.145Z,2.90
2022-10-14T07:30:20.426Z,2.83
2022-10-14T07:32:51.702Z,3.75
2022-10-14T07:35:22.593Z,4.43
2022-10-14T07:37:53.670Z,2.80
2022-10-14T07:40:25.007Z,2.33
2022-10-14T07:42:58.654Z,4.22
2022-10-14T07:45:35.291Z,3.05
2022-10-14T07:48:06.909Z,2.85
2022-10-14T07:50:37.912Z,2.88
2022-10-14T07:53:08.818Z,2.50
2022-10-14T07:55:40.036Z,4.38
2022-10-14T07:58:14.245Z,7.25
2022-10-14T08:00:46.150Z,3.45
2022-10-14T08:03:17.159Z,2.00
2022-10-14T08:05:50.365Z,2.28
2022-10-14T08:08:23.666Z,2.67
2022-10-14T08:11:03.602Z,2.72
2022-10-14T08:13:41.942Z,2.40
2022-10-14T08:16:19.042Z,3.25
2022-10-14T08:18:51.121Z,2.78
2022-10-14T08:21:23.220Z,4.35
2022-10-14T08:23:55.153Z,3.22
2022-10-14T08:26:31.040Z,4.70
2022-10-14T08:29:06.759Z,3.53
2022-10-14T08:31:37.911Z,5.22
2022-10-14T08:34:08.831Z,3.17
2022-10-14T08:36:39.937Z,3.30
2022-10-14T08:39:11.120Z,3.20
2022-10-14T08:42:06.063Z,7.28
2022-10-14T08:44:45.937Z,3.35
2022-10-14T08:47:19.416Z,2.70
2022-10-14T08:49:58.835Z,3.78
2022-10-14T08:52:37.615Z,2.47
2022-10-14T08:55:20.153Z,2.85
2022-10-14T08:57:56.625Z,2.47
2022-10-14T09:00:32.995Z,2.28
2022-10-14T09:03:08.355Z,2.35
2022-10-14T09:05:42.181Z,2.92
2022-10-14T09:08:18.174Z,1.88
2022-10-14T09:10:49.424Z,1.92
2022-10-14T09:13:26.366Z,2.60
2022-10-14T09:16:05.324Z,2.70
2022-10-14T09:18:39.921Z,3.47
2022-10-14T09:21:48.032Z,3.13
2022-10-14T09:24:22.433Z,2.28
2022-10-14T09:29:50.807Z,2.13
2022-10-14T09:32:34.480Z,0.90
2022-10-14T09:35:05.972Z,1.77
2022-10-14T09:37:40.005Z,1.77
2022-10-14T09:40:21.065Z,1.08
2022-10-14T09:42:55.605Z,1.00
2022-10-14T09:45:27.725Z,1.27
2022-10-14T09:48:07.536Z,1.77
2022-10-14T09:50:41.583Z,1.15
2022-10-14T09:53:20.625Z,1.63
2022-10-14T09:55:55.136Z,1.70
2022-10-14T09:58:33.538Z,1.88
2022-10-14T10:01:05.491Z,1.75
2022-10-14T10:03:41.367Z,2.80
2022-10-14T10:06:14.616Z,1.37
2022-10-14T10:09:00.300Z,2.55
2022-10-14T10:11:33.659Z,4.25
2022-10-14T10:14:19.987Z,2.38
2022-10-14T10:19:47.343Z,2.70
2022-10-14T10:22:26.802Z,4.55
2022-10-14T10:25:21.314Z,3.40
2022-10-14T10:27:52.931Z,4.30
2022-10-14T10:30:27.725Z,4.10
2022-10-14T10:33:10.402Z,3.42
2022-10-14T10:36:07.550Z,5.10
2022-10-14T10:38:45.632Z,5.00
2022-10-14T10:41:28.718Z,6.72
2022-10-14T10:44:15.498Z,5.25
2022-10-14T10:47:15.739Z,6.43
2022-10-14T10:50:10.345Z,4.60
2022-10-14T10:52:56.748Z,8.10
2022-10-14T10:55:36.144Z,3.88
2022-10-14T10:58:25.216Z,5.10
2022-10-14T11:01:04.069Z,4.25
2022-10-14T11:03:52.093Z,3.35
2022-10-14T11:06:42.414Z,5.57
2022-10-14T11:09:34.681Z,7.70
2022-10-14T11:12:15.254Z,6.22
2022-10-14T11:15:12.027Z,6.85
2022-10-14T11:17:50.420Z,5.63
2022-10-14T11:20:31.129Z,3.67
2022-10-14T11:23:19.273Z,2.97
2022-10-14T11:25:58.068Z,3.40
2022-10-14T11:28:38.477Z,2.58
2022-10-14T11:31:19.806Z,5.55
2022-10-14T11:34:11.836Z,3.67
2022-10-14T11:36:55.652Z,7.47
2022-10-14T11:39:41.307Z,3.13
2022-10-14T11:42:52.838Z,2.95
2022-10-14T11:45:51.922Z,5.38
2022-10-14T11:48:37.557Z,3.55
2022-10-14T11:51:19.242Z,1.98
2022-10-14T11:53:59.257Z,3.03
2022-10-14T11:56:40.709Z,3.10
2022-10-14T11:59:24.029Z,2.85
2022-10-14T12:02:01.879Z,2.42
2022-10-14T12:04:36.257Z,1.70
2022-10-14T12:07:13.545Z,2.85
2022-10-14T12:09:49.354Z,1.80
2022-10-14T12:12:23.070Z,3.05
2022-10-14T12:15:01.707Z,4.15
2022-10-14T12:17:37.484Z,3.58
2022-10-14T12:20:22.549Z,3.45
2022-10-14T12:22:55.302Z,4.50
2022-10-14T12:25:30.819Z,2.10
2022-10-14T12:28:02.482Z,4.50
2022-10-14T12:30:47.689Z,3.22
2022-10-14T12:33:22.820Z,2.83
2022-10-14T12:35:59.575Z,2.67
2022-10-14T12:38:34.826Z,3.28
2022-10-14T12:41:36.455Z,2.13
2022-10-14T12:44:14.417Z,3.50
2022-10-14T12:46:52.367Z,4.00
2022-10-14T12:49:31.357Z,2.78
2022-10-14T12:52:06.167Z,2.25
2022-10-14T12:54:40.736Z,2.85
2022-10-14T12:57:31.481Z,1.98
2022-10-14T13:00:08.400Z,2.72
2022-10-14T13:05:31.244Z,2.88
2022-10-14T13:08:28.715Z,2.63
2022-10-14T13:11:15.416Z,4.55
2022-10-14T13:14:01.227Z,5.25
2022-10-14T13:17:09.906Z,3.03
2022-10-14T13:19:48.409Z,3.20
2022-10-14T13:22:44.095Z,2.13
2022-10-14T13:25:24.302Z,4.88
2022-10-14T13:28:11.338Z,6.85
2022-10-14T13:30:55.380Z,9.00
2022-10-14T13:33:34.748Z,4.38
2022-10-14T13:36:16.690Z,2.40
2022-10-14T13:38:54.696Z,8.95
2022-10-14T13:41:31.241Z,4.38
2022-10-14T13:46:37.516Z,12.13
2022-10-14T13:49:18.466Z,6.35
2022-10-14T13:51:54.995Z,4.40
2022-10-14T13:54:27.622Z,2.92
2022-10-14T14:02:55.121Z,1.70
2022-10-14T14:05:32.711Z,3.80
2022-10-14T14:08:36.826Z,3.20
2022-10-14T14:11:18.007Z,6.70
2022-10-14T14:14:07.919Z,4.95
2022-10-14T14:16:42.064Z,5.70
2022-10-14T14:19:22.157Z,4.60
2022-10-14T14:21:53.482Z,5.03
2022-10-14T14:24:29.874Z,1.40
2022-10-14T14:27:00.882Z,4.20
2022-10-14T14:29:35.299Z,4.10
2022-10-14T14:32:08.588Z,2.92
2022-10-14T14:34:41.614Z,2.15
2022-10-14T14:37:52.950Z,2.65
2022-10-14T14:40:21.125Z,4.13
2022-10-14T14:42:55.455Z,3.65
2022-10-14T14:45:29.592Z,2.10
2022-10-14T14:48:04.994Z,2.15
2022-10-14T14:50:40.444Z,3.45
2022-10-14T14:53:15.492Z,2.88
2022-10-14T14:56:00.641Z,3.78
2022-10-14T14:58:35.332Z,2.55
2022-10-14T15:01:08.001Z,3.22
2022-10-14T15:04:13.163Z,3.37
2022-10-14T15:06:50.979Z,2.83
2022-10-14T15:09:27.454Z,3.63
2022-10-14T15:12:03.402Z,3.42
2022-10-14T15:14:37.913Z,2.30
2022-10-14T15:17:09.327Z,2.45
2022-10-14T15:19:40.773Z,1.90
2022-10-14T15:22:34.923Z,1.52
2022-10-14T15:25:10.258Z,1.55
2022-10-14T15:27:53.488Z,2.00
2022-10-14T15:30:31.952Z,2.20
2022-10-14T15:33:05.378Z,1.38
2022-10-14T15:35:38.496Z,1.15
2022-10-14T15:38:16.428Z,1.45
2022-10-14T15:40:48.471Z,1.05
2022-10-14T15:43:28.458Z,0.73
2022-10-14T15:46:13.449Z,1.10
2022-10-14T15:48:50.411Z,1.23
2022-10-14T15:51:23.769Z,1.98
2022-10-14T15:53:54.977Z,0.77
2022-10-14T15:56:25.790Z,1.00
2022-10-14T15:58:59.175Z,1.45
2022-10-14T16:01:30.023Z,1.15
2022-10-14T16:04:01.345Z,2.38
2022-10-14T16:06:32.996Z,1.80
2022-10-14T16:09:04.119Z,1.25
2022-10-14T16:11:35.004Z,1.20
2022-10-14T16:14:09.239Z,6.78
2022-10-14T16:16:43.809Z,9.82
2022-10-14T16:19:15.186Z,10.55
2022-10-14T16:21:47.003Z,3.20
2022-10-14T16:24:25.500Z,2.83
2022-10-14T16:26:57.485Z,2.58
2022-10-14T16:29:31.339Z,10.30
2022-10-14T16:32:02.680Z,1.60
2022-10-14T16:34:33.744Z,1.98
2022-10-14T16:37:04.814Z,2.92
2022-10-14T16:39:35.671Z,5.82
2022-10-14T16:42:08.404Z,8.93
2022-10-14T16:44:41.965Z,7.30
2022-10-14T16:47:22.672Z,5.60
2022-10-14T16:49:57.286Z,5.68
2022-10-14T16:52:28.102Z,2.00
2022-10-14T16:54:59.197Z,2.38
2022-10-14T16:57:32.617Z,3.00
2022-10-14T17:00:07.191Z,3.92
2022-10-14T17:02:38.715Z,5.25
2022-10-14T17:05:11.513Z,2.63
2022-10-14T17:07:43.615Z,2.53
2022-10-14T17:10:14.914Z,2.40
2022-10-14T17:12:46.057Z,2.80
2022-10-14T17:15:20.220Z,6.18
2022-10-14T17:17:51.810Z,5.65
2022-10-14T17:20:24.029Z,8.48
2022-10-14T17:22:57.081Z,6.43
2022-10-14T17:25:28.352Z,6.82
2022-10-14T17:27:59.277Z,4.70
2022-10-14T17:30:32.865Z,4.72
2022-10-14T17:33:03.906Z,4.45
2022-10-14T17:35:37.266Z,3.35
2022-10-14T17:38:08.424Z,3.20
2022-10-14T17:40:39.543Z,5.13
2022-10-14T17:43:11.037Z,4.05
2022-10-14T17:45:44.913Z,5.55
2022-10-14T17:48:18.292Z,2.38
2022-10-14T17:50:51.368Z,1.92
2022-10-14T17:53:22.191Z,3.38
2022-10-14T17:55:55.400Z,3.10
2022-10-14T17:58:28.440Z,3.88
2022-10-14T18:01:06.859Z,2.92
2022-10-14T18:03:39.230Z,2.70
2022-10-14T18:06:15.787Z,3.95
2022-10-14T18:08:48.647Z,1.90
2022-10-14T18:11:20.004Z,3.72
2022-10-14T18:13:56.023Z,3.03
2022-10-14T18:16:33.634Z,1.70
2022-10-14T18:19:06.103Z,3.45
2022-10-14T18:21:39.257Z,2.45
2022-10-14T18:24:11.344Z,2.88
2022-10-14T18:26:42.629Z,3.83
2022-10-14T18:29:13.505Z,3.00
2022-10-14T18:31:47.272Z,3.17
2022-10-14T18:34:18.846Z,5.50
2022-10-14T18:36:50.318Z,5.53
2022-10-14T18:39:21.420Z,8.35
2022-10-14T18:41:52.641Z,6.30
2022-10-14T18:44:23.710Z,7.10
2022-10-14T18:46:58.300Z,6.57
2022-10-14T18:49:29.392Z,6.15
2022-10-14T18:52:00.182Z,4.72
2022-10-14T18:54:32.848Z,6.47
2022-10-14T18:57:05.305Z,8.15
2022-10-14T18:59:36.422Z,6.18
2022-10-14T19:02:11.882Z,4.40
2022-10-14T19:04:42.887Z,6.22
2022-10-14T19:07:14.653Z,4.55
2022-10-14T19:09:46.458Z,6.20
2022-10-14T19:12:29.625Z,4.55
2022-10-14T19:15:00.817Z,5.07
2022-10-14T19:17:35.051Z,6.53
2022-10-14T19:20:08.678Z,4.55
2022-10-14T19:22:45.023Z,4.60
2022-10-14T19:25:16.774Z,7.05
2022-10-14T19:27:48.086Z,4.45
2022-10-14T19:30:19.138Z,5.13
2022-10-14T19:32:55.633Z,2.13
2022-10-14T19:35:27.496Z,5.93
2022-10-14T19:37:59.351Z,4.15
2022-10-14T19:40:30.877Z,3.95
2022-10-14T19:43:02.713Z,4.95
2022-10-14T19:45:34.316Z,5.78
2022-10-14T19:48:09.048Z,5.25
2022-10-14T19:50:44.679Z,5.20
2022-10-14T19:53:16.190Z,4.72
2022-10-14T19:55:47.784Z,5.47
2022-10-14T19:58:19.662Z,3.50
2022-10-14T20:00:51.824Z,3.67
2022-10-14T20:03:27.135Z,2.70
2022-10-14T20:06:08.315Z,4.70
2022-10-14T20:08:39.799Z,5.03
2022-10-14T20:11:13.820Z,4.82
2022-10-14T20:13:46.607Z,6.65
2022-10-14T20:16:18.363Z,2.55
2022-10-14T20:18:52.437Z,4.03
2022-10-14T20:21:23.909Z,2.80
2022-10-14T20:23:55.192Z,2.88
2022-10-14T20:29:17.863Z,3.58
2022-10-14T20:31:48.724Z,4.50
2022-10-14T20:34:23.192Z,4.72
2022-10-14T20:36:54.471Z,3.38
2022-10-14T20:39:26.498Z,3.00
2022-10-14T20:41:57.492Z,3.17
2022-10-14T20:44:28.859Z,4.63
2022-10-14T20:46:59.749Z,4.03
2022-10-14T20:49:33.301Z,5.82
2022-10-14T20:52:04.377Z,3.70
2022-10-14T20:54:35.147Z,2.03
2022-10-14T20:57:05.958Z,4.35
2022-10-14T20:59:40.614Z,6.35
2022-10-14T21:02:19.468Z,2.92
2022-10-14T21:04:54.959Z,3.53
2022-10-14T21:07:26.516Z,4.20
2022-10-14T21:09:57.648Z,3.20
2022-10-14T21:12:28.841Z,2.50
2022-10-14T21:14:59.734Z,2.42
2022-10-14T21:17:30.862Z,3.75
2022-10-14T21:20:04.562Z,2.85
2022-10-14T21:22:35.555Z,2.75
2022-10-14T21:25:07.284Z,2.65
2022-10-14T21:27:38.262Z,3.22
2022-10-14T21:30:10.857Z,4.25
2022-10-14T21:32:42.255Z,4.20
2022-10-14T21:35:15.989Z,2.47
2022-10-14T21:37:47.153Z,2.50
2022-10-14T21:40:18.440Z,1.85
2022-10-14T21:42:49.458Z,4.22
2022-10-14T21:45:20.536Z,13.95
2022-10-14T21:47:53.114Z,7.10
2022-10-14T21:50:30.088Z,17.75
2022-10-14T21:53:01.412Z,5.30
2022-10-14T21:55:32.356Z,9.20
2022-10-14T21:58:03.243Z,2.75
2022-10-14T22:00:34.067Z,3.97
2022-10-14T22:03:05.019Z,3.80
2022-10-14T22:05:39.233Z,2.40
2022-10-14T22:08:10.255Z,3.25
2022-10-14T22:10:45.403Z,2.63
2022-10-14T22:13:17.400Z,1.63
2022-10-14T22:15:48.532Z,1.42
2022-10-14T22:18:19.284Z,3.10
2022-10-14T22:20:53.714Z,1.98
2022-10-14T22:23:24.391Z,2.33
2022-10-14T22:25:55.109Z,1.20
2022-10-14T22:28:25.985Z,1.13
2022-10-14T22:30:57.990Z,2.25
2022-10-14T22:33:28.702Z,1.63
2022-10-14T22:36:12.399Z,3.22
2022-10-14T22:38:45.531Z,2.55
2022-10-14T22:41:17.753Z,1.50
2022-10-14T22:43:53.093Z,4.28
2022-10-14T22:46:25.299Z,3.72
2022-10-14T22:48:57.834Z,0.70
2022-10-14T22:51:33.151Z,5.20
2022-10-14T22:54:04.041Z,2.47
2022-10-14T22:56:35.652Z,3.58
2022-10-14T22:59:08.261Z,3.20
2022-10-14T23:01:39.704Z,1.92
2022-10-14T23:04:10.563Z,1.63
2022-10-14T23:06:49.527Z,2.28
2022-10-14T23:09:20.363Z,2.22
2022-10-14T23:11:51.205Z,2.17
2022-10-14T23:14:21.889Z,4.43
2022-10-14T23:16:52.533Z,2.22
2022-10-14T23:19:23.161Z,2.83
2022-10-14T23:21:56.913Z,4.15
2022-10-14T23:24:28.423Z,1.92
2022-10-14T23:26:59.079Z,2.13
2022-10-14T23:29:29.744Z,1.73
2022-10-14T23:32:00.402Z,1.90
2022-10-14T23:34:31.096Z,1.55
2022-10-14T23:37:04.515Z,1.25
2022-10-14T23:39:35.431Z,2.88
2022-10-14T23:42:06.508Z,3.00
2022-10-14T23:44:37.474Z,1.75
2022-10-14T23:47:08.477Z,0.98
2022-10-14T23:49:39.491Z,1.40
2022-10-14T23:52:12.722Z,0.88
2022-10-14T23:54:43.505Z,1.10
2022-10-14T23:57:15.185Z,1.75
2022-10-14T23:59:45.957Z,0.98
